createdAt,value
2019-01-16T00:01:02.615Z,60.20
2019-01-16T00:03:32.784Z,60.10
2019-01-16T00:06:11.971Z,60.10
2019-01-16T00:08:48.802Z,60.00
2019-01-16T00:11:21.930Z,60.00
2019-01-16T00:13:54.933Z,60.00
2019-01-16T00:16:43.052Z,59.90
2019-01-16T00:19:28.053Z,59.80
2019-01-16T00:22:13.821Z,59.80
2019-01-16T00:25:01.977Z,59.80
2019-01-16T00:27:32.593Z,59.70
2019-01-16T00:30:18.963Z,59.70
2019-01-16T00:32:49.297Z,59.70
2019-01-16T00:35:25.381Z,59.60
2019-01-16T00:38:09.220Z,59.60
2019-01-16T00:40:55.231Z,59.60
2019-01-16T00:43:34.859Z,59.60
2019-01-16T00:46:10.704Z,59.50
2019-01-16T00:48:53.220Z,59.50
2019-01-16T00:51:29.021Z,59.50
2019-01-16T00:54:16.095Z,59.40
2019-01-16T00:56:51.912Z,59.50
2019-01-16T00:59:22.079Z,59.30
2019-01-16T01:01:55.119Z,59.30
2019-01-16T01:04:29.573Z,59.30
2019-01-16T01:07:15.813Z,59.30
2019-01-16T01:09:55.621Z,59.20
2019-01-16T01:12:38.084Z,59.20
2019-01-16T01:15:19.276Z,59.10
2019-01-16T01:17:51.944Z,59.10
2019-01-16T01:20:40.960Z,59.10
2019-01-16T01:23:25.922Z,59.10
2019-01-16T01:25:56.966Z,59.00
2019-01-16T01:28:27.018Z,59.00
2019-01-16T01:30:57.072Z,59.00
2019-01-16T01:33:43.325Z,59.00
2019-01-16T01:36:13.385Z,58.90
2019-01-16T01:38:46.206Z,58.90
2019-01-16T01:41:17.449Z,59.00
2019-01-16T01:43:50.065Z,58.80
2019-01-16T01:46:29.424Z,58.80
2019-01-16T01:49:15.503Z,58.80
2019-01-16T01:51:45.613Z,58.90
2019-01-16T01:54:15.662Z,59.50
2019-01-16T01:56:52.570Z,58.80
2019-01-16T01:59:31.525Z,58.70
2019-01-16T02:02:01.801Z,58.70
2019-01-16T02:04:31.852Z,58.60
2019-01-16T02:07:23.857Z,58.60
2019-01-16T02:10:02.989Z,58.60
2019-01-16T02:12:33.754Z,58.60
2019-01-16T02:15:03.811Z,58.60
2019-01-16T02:17:36.778Z,58.50
2019-01-16T02:20:12.796Z,58.50
2019-01-16T02:22:45.304Z,58.50
2019-01-16T02:25:31.661Z,59.10
2019-01-16T02:28:10.936Z,58.40
2019-01-16T02:30:56.910Z,58.50
2019-01-16T02:33:32.696Z,58.40
2019-01-16T02:36:02.795Z,58.30
2019-01-16T02:38:35.356Z,58.40
2019-01-16T02:41:08.754Z,58.30
2019-01-16T02:43:55.249Z,58.40
2019-01-16T02:46:37.865Z,58.30
2019-01-16T02:49:26.033Z,58.30
2019-01-16T02:52:11.196Z,58.30
2019-01-16T02:54:53.471Z,58.20
2019-01-16T02:57:40.063Z,58.20
2019-01-16T03:00:15.859Z,58.10
2019-01-16T03:02:56.113Z,58.10
2019-01-16T03:05:26.161Z,58.10
2019-01-16T03:07:57.381Z,58.10
2019-01-16T03:10:34.562Z,58.10
2019-01-16T03:13:04.613Z,58.10
2019-01-16T03:15:34.669Z,58.10
2019-01-16T03:18:16.783Z,58.10
2019-01-16T03:21:03.029Z,58.10
2019-01-16T03:23:39.189Z,58.10
2019-01-16T03:26:14.893Z,57.90
2019-01-16T03:29:02.261Z,58.00
2019-01-16T03:31:38.094Z,58.00
2019-01-16T03:34:08.511Z,57.90
2019-01-16T03:36:41.025Z,57.90
2019-01-16T03:39:11.078Z,57.90
2019-01-16T03:41:47.225Z,57.80
2019-01-16T03:44:17.273Z,57.90
2019-01-16T03:46:53.341Z,57.80
2019-01-16T03:49:35.527Z,57.80
2019-01-16T03:52:05.981Z,57.80
2019-01-16T03:54:54.178Z,57.80
2019-01-16T03:57:30.592Z,57.60
2019-01-16T04:00:03.849Z,57.70
2019-01-16T04:02:40.241Z,57.60
2019-01-16T04:05:12.800Z,57.70
2019-01-16T04:07:48.680Z,58.20
2019-01-16T04:10:19.241Z,57.50
2019-01-16T04:12:49.283Z,57.50
2019-01-16T04:15:34.500Z,57.50
2019-01-16T04:18:20.417Z,58.20
2019-01-16T04:21:07.805Z,58.20
2019-01-16T04:23:43.797Z,57.50
2019-01-16T04:26:13.905Z,57.50
2019-01-16T04:28:43.959Z,57.50
2019-01-16T04:31:29.075Z,57.40
2019-01-16T04:34:08.104Z,57.30
2019-01-16T04:36:41.376Z,57.50
2019-01-16T04:39:14.234Z,57.40
2019-01-16T04:41:50.159Z,57.40
2019-01-16T04:44:31.933Z,57.40
2019-01-16T04:47:18.465Z,57.30
2019-01-16T04:49:48.518Z,57.30
2019-01-16T04:52:27.823Z,57.30
2019-01-16T04:55:13.040Z,57.40
2019-01-16T04:58:01.321Z,57.20
2019-01-16T05:00:40.036Z,57.30
2019-01-16T05:03:10.594Z,57.30
2019-01-16T05:05:52.577Z,57.20
2019-01-16T05:08:39.405Z,57.30
2019-01-16T05:11:26.560Z,57.30
2019-01-16T05:13:56.979Z,58.00
2019-01-16T05:16:27.021Z,57.60
2019-01-16T05:19:13.337Z,57.60
2019-01-16T05:21:48.998Z,57.60
2019-01-16T05:24:24.945Z,57.70
2019-01-16T05:26:54.992Z,57.60
2019-01-16T05:29:25.051Z,57.60
2019-01-16T05:32:04.345Z,57.60
2019-01-16T05:34:34.402Z,57.60
2019-01-16T05:37:16.677Z,57.60
2019-01-16T05:39:52.444Z,57.50
2019-01-16T05:42:23.365Z,57.50
2019-01-16T05:44:53.422Z,57.50
2019-01-16T05:47:23.482Z,57.50
2019-01-16T05:50:02.475Z,57.60
2019-01-16T05:52:49.090Z,57.60
2019-01-16T05:55:22.304Z,57.70
2019-01-16T05:57:55.189Z,57.70
2019-01-16T06:00:25.234Z,57.70
2019-01-16T06:02:56.050Z,57.70
2019-01-16T06:05:26.113Z,57.70
2019-01-16T06:08:12.466Z,57.80
2019-01-16T06:10:45.483Z,57.80
2019-01-16T06:13:22.072Z,57.80
2019-01-16T06:16:01.140Z,57.80
2019-01-16T06:18:35.056Z,57.70
2019-01-16T06:21:10.914Z,57.80
2019-01-16T06:23:41.349Z,57.80
2019-01-16T06:26:13.840Z,57.80
2019-01-16T06:28:47.422Z,57.90
2019-01-16T06:31:29.717Z,58.00
2019-01-16T06:33:59.917Z,58.40
2019-01-16T06:36:48.628Z,58.70
2019-01-16T06:39:19.403Z,59.00
2019-01-16T06:41:58.453Z,59.30
2019-01-16T06:44:44.872Z,59.60
2019-01-16T06:47:23.637Z,60.00
2019-01-16T06:50:01.492Z,60.20
2019-01-16T06:52:26.534Z,60.20
2019-01-16T06:55:02.745Z,60.30
2019-01-16T06:57:38.809Z,60.10
2019-01-16T07:00:17.759Z,60.20
2019-01-16T07:02:47.810Z,60.10
2019-01-16T07:05:20.573Z,60.10
2019-01-16T07:07:51.250Z,60.10
2019-01-16T07:10:23.939Z,60.00
2019-01-16T07:12:53.997Z,60.00
2019-01-16T07:15:42.431Z,59.90
2019-01-16T07:18:14.993Z,59.90
2019-01-16T07:20:54.339Z,59.90
2019-01-16T07:23:33.577Z,59.90
2019-01-16T07:26:06.892Z,59.80
2019-01-16T07:28:36.933Z,59.70
2019-01-16T07:31:22.133Z,59.70
2019-01-16T07:33:54.853Z,59.70
2019-01-16T07:36:24.946Z,59.70
2019-01-16T07:38:55.285Z,59.70
2019-01-16T07:41:37.175Z,59.80
2019-01-16T07:44:24.205Z,59.70
2019-01-16T07:47:00.069Z,59.70
2019-01-16T07:49:30.351Z,59.50
2019-01-16T07:52:03.157Z,59.50
2019-01-16T07:54:45.974Z,59.60
2019-01-16T07:57:21.681Z,59.50
2019-01-16T08:00:04.756Z,59.50
2019-01-16T08:02:37.778Z,59.50
2019-01-16T08:05:25.081Z,59.50
2019-01-16T08:07:55.128Z,59.40
2019-01-16T08:10:25.241Z,59.40
2019-01-16T08:13:01.385Z,59.30
2019-01-16T08:15:33.244Z,59.30
2019-01-16T08:18:07.103Z,59.30
2019-01-16T08:20:43.300Z,59.30
2019-01-16T08:23:22.525Z,59.30
2019-01-16T08:26:04.579Z,59.30
2019-01-16T08:28:34.852Z,58.20
2019-01-16T08:31:07.630Z,58.70
2019-01-16T08:33:44.242Z,59.00
2019-01-16T08:36:16.806Z,59.10
2019-01-16T08:38:46.861Z,59.20
2019-01-16T08:41:31.973Z,59.30
2019-01-16T08:44:13.846Z,59.50
2019-01-16T08:46:43.282Z,59.70
2019-01-16T08:49:16.031Z,60.30
2019-01-16T08:51:46.097Z,60.60
2019-01-16T08:54:33.649Z,60.90
2019-01-16T08:57:15.693Z,61.60
2019-01-16T08:59:45.812Z,61.70
2019-01-16T09:02:21.597Z,62.20
2019-01-16T09:05:10.378Z,62.10
2019-01-16T09:07:40.430Z,62.40
2019-01-16T09:10:29.133Z,62.20
2019-01-16T09:13:04.914Z,62.50
2019-01-16T09:15:38.156Z,62.90
2019-01-16T09:18:15.054Z,63.00
2019-01-16T09:20:48.789Z,62.80
2019-01-16T09:23:37.277Z,62.60
2019-01-16T09:26:23.709Z,62.70
2019-01-16T09:29:02.758Z,62.50
2019-01-16T09:31:35.889Z,62.80
2019-01-16T09:34:06.112Z,62.80
2019-01-16T09:36:36.170Z,62.80
2019-01-16T09:39:12.409Z,62.70
2019-01-16T09:41:58.676Z,62.70
2019-01-16T09:44:50.035Z,62.70
2019-01-16T09:47:36.261Z,62.60
2019-01-16T09:50:09.122Z,62.50
2019-01-16T09:52:42.003Z,62.90
2019-01-16T09:55:12.637Z,63.20
2019-01-16T09:58:00.558Z,63.40
2019-01-16T10:00:42.704Z,63.50
2019-01-16T10:03:30.960Z,63.50
2019-01-16T10:06:04.317Z,64.30
2019-01-16T10:08:46.416Z,64.40
2019-01-16T10:11:23.197Z,64.40
2019-01-16T10:14:02.170Z,64.20
2019-01-16T10:16:50.981Z,63.90
2019-01-16T10:19:21.644Z,64.40
2019-01-16T10:22:10.173Z,64.30
2019-01-16T10:24:49.098Z,64.30
2019-01-16T10:27:25.629Z,64.20
2019-01-16T10:30:10.850Z,64.20
2019-01-16T10:32:41.361Z,64.10
2019-01-16T10:35:29.357Z,64.10
2019-01-16T10:38:08.538Z,64.10
2019-01-16T10:40:55.220Z,64.00
2019-01-16T10:43:25.882Z,63.90
2019-01-16T10:46:12.156Z,63.90
2019-01-16T10:49:00.530Z,63.80
2019-01-16T10:51:30.581Z,64.00
2019-01-16T10:54:00.640Z,64.00
2019-01-16T10:56:33.777Z,63.90
2019-01-16T10:59:06.412Z,64.20
2019-01-16T11:01:39.929Z,64.90
2019-01-16T11:04:15.754Z,64.90
2019-01-16T11:07:01.470Z,65.00
2019-01-16T11:09:40.295Z,64.70
2019-01-16T11:12:28.636Z,64.50
2019-01-16T11:15:13.557Z,64.30
2019-01-16T11:17:44.860Z,64.10
2019-01-16T11:20:17.685Z,63.80
2019-01-16T11:22:57.041Z,63.90
2019-01-16T11:25:32.896Z,63.70
2019-01-16T11:28:15.174Z,63.50
2019-01-16T11:31:01.744Z,63.50
2019-01-16T11:33:44.457Z,63.90
2019-01-16T11:36:33.018Z,63.60
2019-01-16T11:39:19.500Z,64.00
2019-01-16T11:41:49.647Z,64.00
2019-01-16T11:44:37.860Z,64.30
2019-01-16T11:47:25.870Z,63.90
2019-01-16T11:50:13.446Z,63.50
2019-01-16T11:52:45.986Z,62.90
2019-01-16T11:55:16.105Z,63.00
2019-01-16T11:57:46.178Z,63.20
2019-01-16T12:00:22.746Z,63.10
2019-01-16T12:03:10.782Z,63.30
2019-01-16T12:05:58.505Z,63.60
2019-01-16T12:08:40.781Z,63.40
2019-01-16T12:11:25.881Z,63.30
2019-01-16T12:13:58.760Z,63.50
2019-01-16T12:16:43.797Z,63.20
2019-01-16T12:19:13.848Z,63.30
2019-01-16T12:22:03.722Z,64.40
2019-01-16T12:24:36.338Z,65.30
2019-01-16T12:27:15.321Z,66.00
2019-01-16T12:30:00.240Z,65.50
2019-01-16T12:32:32.962Z,65.90
2019-01-16T12:35:21.327Z,66.30
2019-01-16T12:38:08.153Z,66.10
2019-01-16T12:40:54.530Z,66.50
2019-01-16T12:43:40.138Z,66.90
2019-01-16T12:46:13.009Z,67.00
2019-01-16T12:48:48.875Z,66.20
2019-01-16T12:51:18.941Z,65.70
2019-01-16T12:53:58.751Z,65.10
2019-01-16T12:56:34.723Z,65.80
2019-01-16T12:59:08.229Z,65.50
2019-01-16T13:01:56.503Z,66.60
2019-01-16T13:04:36.293Z,66.10
2019-01-16T13:07:06.730Z,65.90
2019-01-16T13:09:36.797Z,66.00
2019-01-16T13:12:13.623Z,66.20
2019-01-16T13:14:43.681Z,66.60
2019-01-16T13:17:22.465Z,66.70
2019-01-16T13:19:58.438Z,66.60
2019-01-16T13:22:31.869Z,66.60
2019-01-16T13:25:18.145Z,67.00
2019-01-16T13:27:57.546Z,67.00
2019-01-16T13:30:44.062Z,66.90
2019-01-16T13:33:29.435Z,66.80
2019-01-16T13:36:02.281Z,66.50
2019-01-16T13:38:35.301Z,66.70
2019-01-16T13:41:11.545Z,66.90
2019-01-16T13:43:42.298Z,67.20
2019-01-16T13:46:15.638Z,67.10
2019-01-16T13:48:52.870Z,66.60
2019-01-16T13:51:26.279Z,66.60
2019-01-16T13:54:11.398Z,67.00
2019-01-16T13:56:50.275Z,67.40
2019-01-16T13:59:32.925Z,67.30
2019-01-16T14:02:02.985Z,66.70
2019-01-16T14:04:51.774Z,66.60
2019-01-16T14:07:21.825Z,66.60
2019-01-16T14:10:01.427Z,66.90
2019-01-16T14:12:31.729Z,66.90
2019-01-16T14:15:05.562Z,67.10
2019-01-16T14:17:47.753Z,66.90
2019-01-16T14:20:30.193Z,67.30
2019-01-16T14:23:19.146Z,67.40
2019-01-16T14:25:49.381Z,67.30
2019-01-16T14:28:28.528Z,67.50
2019-01-16T14:30:59.146Z,67.60
2019-01-16T14:33:44.184Z,67.90
2019-01-16T14:36:30.897Z,68.00
2019-01-16T14:39:17.225Z,68.30
2019-01-16T14:41:52.933Z,68.00
2019-01-16T14:44:28.933Z,68.30
2019-01-16T14:47:15.316Z,68.00
2019-01-16T14:50:01.685Z,68.00
2019-01-16T14:52:32.209Z,68.70
2019-01-16T14:55:18.241Z,68.70
2019-01-16T14:57:48.341Z,69.10
2019-01-16T15:00:21.003Z,69.30
2019-01-16T15:03:00.274Z,69.20
2019-01-16T15:05:30.321Z,69.30
2019-01-16T15:08:00.387Z,69.60
2019-01-16T15:10:30.837Z,69.60
2019-01-16T15:13:06.737Z,69.70
2019-01-16T15:15:45.785Z,70.30
2019-01-16T15:18:24.671Z,71.50
2019-01-16T15:21:11.973Z,70.10
2019-01-16T15:23:48.323Z,70.00
2019-01-16T15:26:18.625Z,70.30
2019-01-16T15:29:03.921Z,70.50
2019-01-16T15:31:34.068Z,70.20
2019-01-16T15:34:06.733Z,70.80
2019-01-16T15:36:40.461Z,70.50
2019-01-16T15:39:12.581Z,70.30
2019-01-16T15:41:43.019Z,70.60
2019-01-16T15:44:15.914Z,71.20
2019-01-16T15:46:48.968Z,71.20
2019-01-16T15:49:19.032Z,71.20
2019-01-16T15:52:01.545Z,71.00
2019-01-16T15:54:31.598Z,71.40
2019-01-16T15:57:07.571Z,71.60
2019-01-16T15:59:46.133Z,71.70
2019-01-16T16:02:18.882Z,70.70
2019-01-16T16:05:00.848Z,70.80
2019-01-16T16:07:49.768Z,70.70
2019-01-16T16:10:25.428Z,70.50
2019-01-16T16:12:55.537Z,70.70
2019-01-16T16:15:34.562Z,70.30
2019-01-16T16:18:07.120Z,69.60
2019-01-16T16:20:49.251Z,69.90
2019-01-16T16:23:35.964Z,69.70
2019-01-16T16:26:06.484Z,69.80
2019-01-16T16:28:39.416Z,69.70
2019-01-16T16:31:14.913Z,69.50
2019-01-16T16:33:45.117Z,70.40
2019-01-16T16:36:31.648Z,69.80
2019-01-16T16:39:05.373Z,69.50
2019-01-16T16:41:35.450Z,69.20
2019-01-16T16:44:22.193Z,69.40
2019-01-16T16:46:52.425Z,69.50
2019-01-16T16:49:22.489Z,69.40
2019-01-16T16:51:58.812Z,69.70
2019-01-16T16:54:37.425Z,69.30
2019-01-16T16:57:19.812Z,68.60
2019-01-16T17:00:06.306Z,68.90
2019-01-16T17:02:38.988Z,69.10
2019-01-16T17:05:26.299Z,69.30
2019-01-16T17:07:59.522Z,69.50
2019-01-16T17:10:35.520Z,69.60
2019-01-16T17:13:22.281Z,69.50
2019-01-16T17:16:08.350Z,69.70
2019-01-16T17:18:39.662Z,69.70
2019-01-16T17:21:12.848Z,70.00
2019-01-16T17:23:46.130Z,70.30
2019-01-16T17:26:16.777Z,71.60
2019-01-16T17:28:52.915Z,69.40
2019-01-16T17:31:25.756Z,69.20
2019-01-16T17:33:55.826Z,69.40
2019-01-16T17:36:25.993Z,69.50
2019-01-16T17:38:56.114Z,69.50
2019-01-16T17:41:32.001Z,69.40
2019-01-16T17:44:18.609Z,69.50
2019-01-16T17:46:52.108Z,69.80
2019-01-16T17:49:37.298Z,70.10
2019-01-16T17:52:09.961Z,69.80
2019-01-16T17:54:56.625Z,69.90
2019-01-16T17:57:29.621Z,69.50
2019-01-16T17:59:59.696Z,68.80
2019-01-16T18:02:35.841Z,68.60
2019-01-16T18:05:06.852Z,67.90
2019-01-16T18:07:39.710Z,67.30
2019-01-16T18:10:28.929Z,67.30
2019-01-16T18:13:11.317Z,67.10
2019-01-16T18:15:58.348Z,67.00
2019-01-16T18:18:30.886Z,67.00
2019-01-16T18:21:16.714Z,67.00
2019-01-16T18:24:03.144Z,67.00
2019-01-16T18:26:48.408Z,66.80
2019-01-16T18:29:34.933Z,66.70
2019-01-16T18:32:21.629Z,66.50
2019-01-16T18:35:06.855Z,66.20
2019-01-16T18:37:51.957Z,66.40
2019-01-16T18:40:31.126Z,66.20
2019-01-16T18:43:05.121Z,66.50
2019-01-16T18:45:51.247Z,66.90
2019-01-16T18:48:37.697Z,66.70
2019-01-16T18:51:16.774Z,67.00
2019-01-16T18:53:59.342Z,67.20
2019-01-16T18:56:47.313Z,67.40
2019-01-16T18:59:26.470Z,67.30
2019-01-16T19:02:02.126Z,67.10
2019-01-16T19:04:34.984Z,67.00
2019-01-16T19:07:07.717Z,66.70
2019-01-16T19:09:55.057Z,66.60
2019-01-16T19:12:41.448Z,66.60
2019-01-16T19:15:31.193Z,66.40
2019-01-16T19:18:01.295Z,66.50
2019-01-16T19:20:37.282Z,66.50
2019-01-16T19:23:16.482Z,66.70
2019-01-16T19:26:03.994Z,66.50
2019-01-16T19:28:50.479Z,67.10
2019-01-16T19:31:22.261Z,66.60
2019-01-16T19:33:52.338Z,66.30
2019-01-16T19:36:32.094Z,66.40
2019-01-16T19:39:04.882Z,66.40
2019-01-16T19:41:35.967Z,66.50
2019-01-16T19:44:22.731Z,66.40
2019-01-16T19:46:58.688Z,66.30
2019-01-16T19:49:37.538Z,66.30
2019-01-16T19:52:19.446Z,66.50
2019-01-16T19:54:49.575Z,66.60
2019-01-16T19:57:36.646Z,66.40
2019-01-16T20:00:22.382Z,66.30
2019-01-16T20:03:09.050Z,66.20
2019-01-16T20:05:51.209Z,66.10
2019-01-16T20:08:37.657Z,66.20
2019-01-16T20:11:07.710Z,66.30
2019-01-16T20:13:50.589Z,66.10
2019-01-16T20:16:35.718Z,66.00
2019-01-16T20:19:22.265Z,65.90
2019-01-16T20:22:08.701Z,66.10
2019-01-16T20:24:40.568Z,66.10
2019-01-16T20:27:13.621Z,66.00
2019-01-16T20:29:44.555Z,66.20
2019-01-16T20:32:16.740Z,65.80
2019-01-16T20:34:46.847Z,65.90
2019-01-16T20:37:26.032Z,65.80
2019-01-16T20:40:08.183Z,65.80
2019-01-16T20:42:50.256Z,65.70
2019-01-16T20:45:21.314Z,65.70
2019-01-16T20:48:00.010Z,65.80
2019-01-16T20:50:32.667Z,66.00
2019-01-16T20:53:17.573Z,66.00
2019-01-16T20:56:04.092Z,65.80
2019-01-16T20:58:50.220Z,65.70
2019-01-16T21:01:31.678Z,65.70
2019-01-16T21:04:04.626Z,65.60
2019-01-16T21:06:50.662Z,65.50
2019-01-16T21:09:32.642Z,65.30
2019-01-16T21:12:02.781Z,65.30
2019-01-16T21:14:35.404Z,65.20
2019-01-16T21:17:08.141Z,65.00
2019-01-16T21:19:53.050Z,65.00
2019-01-16T21:22:29.891Z,64.80
2019-01-16T21:25:16.475Z,64.70
2019-01-16T21:27:58.692Z,64.40
2019-01-16T21:30:28.814Z,64.30
2019-01-16T21:32:59.081Z,64.20
2019-01-16T21:35:47.877Z,64.10
2019-01-16T21:38:20.552Z,64.00
2019-01-16T21:41:09.629Z,63.80
2019-01-16T21:43:56.122Z,63.80
2019-01-16T21:46:32.345Z,63.70
2019-01-16T21:49:20.709Z,63.40
2019-01-16T21:51:50.977Z,63.40
2019-01-16T21:54:27.029Z,63.30
2019-01-16T21:56:57.758Z,63.00
2019-01-16T21:59:45.763Z,63.00
2019-01-16T22:02:25.761Z,63.00
2019-01-16T22:05:04.744Z,62.80
2019-01-16T22:07:35.108Z,62.60
2019-01-16T22:10:12.855Z,62.60
2019-01-16T22:12:55.217Z,62.60
2019-01-16T22:15:25.282Z,63.20
2019-01-16T22:17:55.338Z,62.30
2019-01-16T22:20:25.776Z,62.30
2019-01-16T22:22:55.833Z,62.30
2019-01-16T22:25:34.962Z,62.10
2019-01-16T22:28:05.285Z,61.90
2019-01-16T22:30:42.139Z,61.90
2019-01-16T22:33:18.035Z,62.00
2019-01-16T22:35:55.574Z,61.70
2019-01-16T22:38:25.635Z,61.50
2019-01-16T22:40:55.686Z,61.70
2019-01-16T22:43:31.423Z,61.60
2019-01-16T22:46:03.976Z,61.60
2019-01-16T22:48:49.939Z,61.40
2019-01-16T22:51:25.757Z,61.40
2019-01-16T22:54:11.198Z,61.20
2019-01-16T22:56:49.898Z,61.30
2019-01-16T22:59:38.238Z,61.20
2019-01-16T23:02:08.463Z,61.20
2019-01-16T23:04:41.479Z,61.10
2019-01-16T23:07:15.062Z,61.10
2019-01-16T23:09:50.918Z,61.00
2019-01-16T23:12:24.403Z,60.90
2019-01-16T23:15:03.061Z,61.00
2019-01-16T23:17:39.132Z,60.90
2019-01-16T23:20:26.709Z,60.80
2019-01-16T23:22:57.753Z,60.80
2019-01-16T23:25:33.465Z,60.70
2019-01-16T23:28:06.316Z,60.70
2019-01-16T23:30:39.372Z,60.60
2019-01-16T23:33:12.571Z,60.30
2019-01-16T23:35:48.794Z,60.50
2019-01-16T23:38:27.493Z,60.40
2019-01-16T23:41:14.094Z,60.40
2019-01-16T23:44:00.765Z,60.30
2019-01-16T23:46:30.825Z,60.40
2019-01-16T23:49:00.882Z,60.10
2019-01-16T23:51:33.994Z,60.10
2019-01-16T23:54:12.533Z,60.00
2019-01-16T23:56:48.985Z,60.10
2019-01-16T23:59:34.069Z,60.00
